Time;durP1;ratioP1;P1;durP2;ratioP2;P2;SDS_P1;SDS_P2;PMS_P1;PMS_P2;Temp;Humidity;BMP_temperature;BMP_pressure;BME280_temperature;BME280_humidity;BME280_pressure;Samples;Min_cycle;Max_cycle;Signal;HPM_P1;HPM_P2
2023/03/01 00:01:34;;;;;;;18.90;11.40;;;;;;;-1.68;100.00;101766.00;5069981;28;20537;-69
2023/03/01 00:04:01;;;;;;;15.73;12.20;;;;;;;-1.59;100.00;101772.84;5080305;28;20482;-69
2023/03/01 00:06:28;;;;;;;12.30;11.00;;;;;;;-1.53;100.00;101765.72;5080136;28;20511;-70
2023/03/01 00:08:54;;;;;;;14.63;11.60;;;;;;;-1.49;100.00;101768.28;5066775;28;20639;-69
2023/03/01 00:11:24;;;;;;;15.17;11.80;;;;;;;-1.49;100.00;101774.41;5062502;28;20508;-70
2023/03/01 00:13:52;;;;;;;16.10;11.33;;;;;;;-1.50;100.00;101770.03;5061659;28;20451;-70
2023/03/01 00:16:21;;;;;;;14.57;11.07;;;;;;;-1.50;100.00;101769.19;5074892;28;20472;-70
2023/03/01 00:18:48;;;;;;;13.60;10.53;;;;;;;-1.51;100.00;101765.72;5080705;28;20933;-70
2023/03/01 00:21:15;;;;;;;11.60;10.23;;;;;;;-1.55;100.00;101766.63;5080832;28;20503;-70
2023/03/01 00:23:42;;;;;;;17.17;12.30;;;;;;;-1.57;100.00;101778.91;5072443;28;20492;-69
2023/03/01 00:26:11;;;;;;;16.57;11.43;;;;;;;-1.92;100.00;101759.38;5070657;28;20261;-69
2023/03/01 00:28:39;;;;;;;14.60;11.00;;;;;;;-2.20;100.00;101780.75;5081004;28;21027;-69
2023/03/01 00:31:07;;;;;;;17.10;10.67;;;;;;;-1.96;100.00;101781.25;5081100;28;21011;-69
2023/03/01 00:33:33;;;;;;;15.90;11.13;;;;;;;-2.00;100.00;101772.56;5081358;28;20479;-70
2023/03/01 00:36:00;;;;;;;15.90;11.15;;;;;;;-1.96;100.00;101776.91;5080000;28;20244;-69
2023/03/01 00:38:28;;;;;;;17.07;11.00;;;;;;;-1.90;100.00;101783.81;5081603;28;20735;-68
2023/03/01 00:40:54;;;;;;;14.00;10.73;;;;;;;-1.84;100.00;101782.84;5079780;28;21032;-69
2023/03/01 00:43:21;;;;;;;14.87;10.30;;;;;;;-1.88;100.00;101784.63;5079806;28;20451;-69
2023/03/01 00:45:49;;;;;;;18.15;10.25;;;;;;;-1.94;100.00;101774.25;5080374;28;20552;-69
2023/03/01 00:48:16;;;;;;;13.93;9.70;;;;;;;-2.02;100.00;101771.75;5081520;28;20201;-69
2023/03/01 00:50:42;;;;;;;11.87;9.93;;;;;;;-2.07;100.00;101770.94;5080089;28;20499;-69
2023/03/01 00:53:09;;;;;;;13.90;10.03;;;;;;;-1.99;100.00;101763.84;5080543;28;20444;-69
2023/03/01 00:55:37;;;;;;;15.03;10.63;;;;;;;-1.95;100.00;101773.38;5044510;28;20556;-69
2023/03/01 00:58:03;;;;;;;17.08;10.23;;;;;;;-1.90;100.00;101770.69;5063676;28;20445;-68
2023/03/01 01:00:30;;;;;;;15.83;10.07;;;;;;;-1.89;100.00;101772.44;5065782;28;20256;-70
2023/03/01 01:02:58;;;;;;;14.50;10.00;;;;;;;-1.90;100.00;101771.56;5064770;28;20475;-69
2023/03/01 01:05:25;;;;;;;12.50;9.57;;;;;;;-1.96;100.00;101771.66;5068891;28;20238;-69
2023/03/01 01:07:51;;;;;;;12.70;9.30;;;;;;;-1.95;100.00;101768.13;5063115;28;20480;-70
2023/03/01 01:10:18;;;;;;;14.68;9.52;;;;;;;-1.95;100.00;101775.13;5062054;28;20491;-69
2023/03/01 01:12:45;;;;;;;15.97;9.93;;;;;;;-1.94;100.00;101771.66;5049962;28;20230;-69
2023/03/01 01:15:14;;;;;;;13.60;10.57;;;;;;;-1.94;100.00;101761.16;5036361;28;20450;-69
2023/03/01 01:17:40;;;;;;;16.23;10.17;;;;;;;-1.95;100.00;101767.28;5056695;28;20198;-69
2023/03/01 01:20:10;;;;;;;11.65;9.27;;;;;;;-1.97;100.00;101761.19;5058616;28;20453;-69
2023/03/01 01:22:37;;;;;;;12.30;8.97;;;;;;;-2.05;100.00;101755.19;5056515;28;20246;-69
2023/03/01 01:25:04;;;;;;;12.50;10.03;;;;;;;-2.12;100.00;101751.78;5059873;28;20503;-69
2023/03/01 01:27:31;;;;;;;13.03;9.87;;;;;;;-1.74;100.00;101745.09;5058726;28;20504;-69
2023/03/01 01:29:57;;;;;;;14.00;9.43;;;;;;;-1.88;100.00;101739.22;5059815;28;20989;-69
2023/03/01 01:32:24;;;;;;;13.67;10.33;;;;;;;-2.10;100.00;101742.16;5055231;28;20508;-70
2023/03/01 01:34:51;;;;;;;12.47;10.07;;;;;;;-2.28;100.00;101735.44;5048685;28;20517;-70
2023/03/01 01:37:19;;;;;;;12.18;10.02;;;;;;;-2.24;100.00;101741.50;5059965;28;20563;-69
2023/03/01 01:39:45;;;;;;;13.52;9.50;;;;;;;-2.22;100.00;101732.75;5060154;28;20230;-69
2023/03/01 01:42:15;;;;;;;18.63;11.40;;;;;;;-2.17;100.00;101737.91;5055895;28;20237;-69
2023/03/01 01:44:45;;;;;;;13.53;10.07;;;;;;;-2.17;100.00;101730.03;5059025;28;20523;-69
2023/03/01 01:47:15;;;;;;;14.33;9.87;;;;;;;-2.22;100.00;101724.88;5055802;28;20484;-69
2023/03/01 01:49:44;;;;;;;13.10;10.07;;;;;;;-2.20;100.00;101733.59;5059513;28;20569;-69
2023/03/01 01:52:15;;;;;;;11.27;9.70;;;;;;;-2.19;100.00;101721.34;5050211;28;20762;-69
2023/03/01 01:54:46;;;;;;;14.10;10.00;;;;;;;-2.22;100.00;101727.50;5040318;28;20249;-69
2023/03/01 01:57:16;;;;;;;12.03;9.50;;;;;;;-2.28;100.00;101725.81;5057960;28;20233;-69
2023/03/01 01:59:45;;;;;;;15.57;9.37;;;;;;;-2.30;100.00;101724.97;5047830;28;20442;-69
2023/03/01 02:02:12;;;;;;;14.90;10.88;;;;;;;-2.44;100.00;101724.31;5044572;28;20524;-69
2023/03/01 02:04:39;;;;;;;17.83;11.10;;;;;;;-2.44;100.00;101726.09;5060000;28;20222;-69
2023/03/01 02:07:14;;;;;;;14.93;9.70;;;;;;;-2.47;100.00;101714.75;5048543;28;20484;-69
2023/03/01 02:09:42;;;;;;;11.23;10.03;;;;;;;-2.42;100.00;101721.69;5047183;28;20487;-69
2023/03/01 02:12:10;;;;;;;14.30;10.17;;;;;;;-2.41;100.00;101724.28;5066503;28;20566;-69
2023/03/01 02:14:36;;;;;;;11.15;9.52;;;;;;;-2.39;100.00;101717.25;5080468;28;21042;-69
2023/03/01 02:17:03;;;;;;;10.57;9.23;;;;;;;-2.51;100.00;101712.19;5080318;28;20226;-70
2023/03/01 02:19:41;;;;;;;12.87;10.67;;;;;;;-2.48;100.00;101715.66;5079564;28;20524;-70
2023/03/01 02:22:16;;;;;;;11.18;9.35;;;;;;;-2.55;100.00;101714.00;5080894;28;20466;-69
2023/03/01 02:24:53;;;;;;;14.10;9.73;;;;;;;-2.53;100.00;101717.47;5083446;28;20208;-69
2023/03/01 02:27:24;;;;;;;13.97;10.23;;;;;;;-2.54;100.00;101709.63;5084383;28;20479;-69
2023/03/01 02:29:52;;;;;;;12.70;10.13;;;;;;;-2.59;100.00;101703.56;5083456;28;20533;-69
2023/03/01 02:32:24;;;;;;;14.10;10.27;;;;;;;-2.61;100.00;101707.97;5084109;28;20221;-69
2023/03/01 02:34:52;;;;;;;11.33;9.93;;;;;;;-2.63;100.00;101712.38;5083211;28;20461;-69
2023/03/01 02:37:20;;;;;;;14.17;9.80;;;;;;;-2.72;100.00;101706.38;5084129;28;20460;-69
2023/03/01 02:39:49;;;;;;;11.50;9.88;;;;;;;-2.66;100.00;101705.41;5083704;28;20457;-69
2023/03/01 02:42:18;;;;;;;11.82;9.75;;;;;;;-2.69;100.00;101701.09;5083896;28;20232;-69
2023/03/01 02:44:45;;;;;;;13.45;10.80;;;;;;;-2.68;100.00;101704.56;5083111;28;20244;-70
2023/03/01 02:47:13;;;;;;;13.30;10.13;;;;;;;-2.73;100.00;101709.00;5083668;28;20192;-70
2023/03/01 02:49:39;;;;;;;12.38;9.93;;;;;;;-2.70;100.00;101686.25;5066204;28;20554;-70
2023/03/01 02:52:18;;;;;;;14.30;9.85;;;;;;;-2.72;100.00;101701.13;5075438;28;20635;-70
2023/03/01 02:54:49;;;;;;;12.90;10.60;;;;;;;-2.73;100.00;101703.75;5065298;28;20210;-70
2023/03/01 02:57:17;;;;;;;13.13;9.98;;;;;;;-2.75;100.00;101698.53;5068588;28;20462;-69
2023/03/01 02:59:44;;;;;;;11.00;8.70;;;;;;;-2.77;100.00;101702.94;5082676;28;20604;-70
2023/03/01 03:02:35;;;;;;;14.32;9.20;;;;;;;-2.76;100.00;101698.56;5077408;28;20466;-69
2023/03/01 03:05:03;;;;;;;12.07;9.60;;;;;;;-2.80;100.00;101705.59;5082011;28;20235;-69
2023/03/01 03:07:30;;;;;;;14.90;10.07;;;;;;;-2.84;100.00;101691.69;5083512;28;20222;-70
2023/03/01 03:09:56;;;;;;;15.90;10.55;;;;;;;-2.88;100.00;101694.38;5082833;28;20240;-70
2023/03/01 03:12:23;;;;;;;15.40;10.63;;;;;;;-2.91;100.00;101691.78;5083110;28;20241;-70
2023/03/01 03:14:50;;;;;;;14.15;10.73;;;;;;;-2.88;100.00;101692.63;5082784;28;20235;-70
2023/03/01 03:17:16;;;;;;;16.55;10.60;;;;;;;-2.84;100.00;101689.06;5082761;28;20229;-70
2023/03/01 03:19:45;;;;;;;14.85;10.20;;;;;;;-2.87;100.00;101683.00;5082403;28;20218;-70
2023/03/01 03:22:12;;;;;;;16.17;11.63;;;;;;;-2.95;100.00;101687.47;5082652;28;20228;-70
2023/03/01 03:24:39;;;;;;;14.30;10.60;;;;;;;-2.91;100.00;101689.16;5081830;28;20227;-70
2023/03/01 03:27:06;;;;;;;18.33;10.90;;;;;;;-2.96;100.00;101678.75;5083002;28;20233;-70
2023/03/01 03:29:33;;;;;;;11.82;9.13;;;;;;;-2.94;100.00;101656.03;5082503;28;20224;-69
2023/03/01 03:32:00;;;;;;;12.75;9.80;;;;;;;-2.89;100.00;101676.94;5082859;28;20193;-70
2023/03/01 03:34:26;;;;;;;13.50;10.65;;;;;;;-2.94;100.00;101671.75;5081469;28;20745;-70
2023/03/01 03:36:59;;;;;;;14.65;10.60;;;;;;;-2.99;100.00;101668.31;5082317;28;20224;-69
2023/03/01 03:39:26;;;;;;;18.27;10.75;;;;;;;-2.95;100.00;101656.06;5082585;28;20213;-70
2023/03/01 03:41:52;;;;;;;14.13;10.32;;;;;;;-2.93;100.00;101670.00;5082252;28;20224;-70
2023/03/01 03:44:19;;;;;;;13.52;10.65;;;;;;;-2.91;100.00;101668.22;5081737;28;20555;-70
2023/03/01 03:46:46;;;;;;;14.98;10.57;;;;;;;-2.94;100.00;101671.75;5082904;28;20219;-69
2023/03/01 03:49:12;;;;;;;13.82;10.73;;;;;;;-2.98;100.00;101658.72;5081324;28;20236;-69
2023/03/01 03:51:39;;;;;;;14.18;10.02;;;;;;;-3.08;100.00;101668.44;5082251;28;20248;-70
2023/03/01 03:54:07;;;;;;;12.57;9.93;;;;;;;-3.12;100.00;101657.16;5082408;28;20297;-71
2023/03/01 03:56:34;;;;;;;17.17;11.55;;;;;;;-3.08;100.00;101661.44;5082429;28;20244;-71
2023/03/01 03:59:01;;;;;;;15.60;11.45;;;;;;;-3.09;100.00;101646.66;5081344;28;20201;-70
2023/03/01 04:01:28;;;;;;;14.95;10.75;;;;;;;-3.10;100.00;101650.13;5081687;28;20236;-69
2023/03/01 04:03:55;;;;;;;17.35;10.90;;;;;;;-3.08;100.00;101650.97;5081691;28;20220;-69
2023/03/01 04:06:22;;;;;;;15.40;11.23;;;;;;;-3.16;100.00;101647.63;5077794;28;20220;-71
2023/03/01 04:08:52;;;;;;;15.07;10.85;;;;;;;-3.18;100.00;101643.28;5064988;28;20272;-69
2023/03/01 04:11:29;;;;;;;15.32;11.00;;;;;;;-3.15;100.00;101640.63;5066414;28;20221;-68
2023/03/01 04:13:57;;;;;;;12.80;10.32;;;;;;;-3.25;100.00;101645.09;5048778;28;20268;-69
2023/03/01 04:16:24;;;;;;;12.80;10.00;;;;;;;-3.20;100.00;101651.13;5045366;28;20194;-69
2023/03/01 04:18:52;;;;;;;13.50;10.65;;;;;;;-3.14;100.00;101652.81;5052556;28;20269;-69
2023/03/01 04:21:20;;;;;;;13.02;10.15;;;;;;;-3.17;100.00;101648.50;5053009;28;20212;-69
2023/03/01 04:23:47;;;;;;;13.00;10.63;;;;;;;-3.26;100.00;101651.22;5061677;28;20214;-69
2023/03/01 04:26:13;;;;;;;13.30;10.27;;;;;;;-3.21;100.00;101652.03;5021793;28;20215;-69
2023/03/01 04:28:44;;;;;;;18.05;10.68;;;;;;;-3.42;100.00;101640.03;5047195;28;20237;-69
2023/03/01 04:31:17;;;;;;;14.73;11.60;;;;;;;-3.38;100.00;101654.84;5061564;28;20320;-70
2023/03/01 04:33:45;;;;;;;13.57;10.25;;;;;;;-3.35;100.00;101646.97;5061423;28;20764;-70
2023/03/01 04:36:12;;;;;;;12.30;9.38;;;;;;;-3.36;100.00;101649.59;5061369;28;20236;-70
2023/03/01 04:38:39;;;;;;;12.50;10.02;;;;;;;-2.89;100.00;101649.00;5061078;28;20208;-71
2023/03/01 04:41:07;;;;;;;15.75;11.35;;;;;;;-3.24;100.00;101646.84;5061578;28;20673;-70
2023/03/01 04:43:34;;;;;;;15.40;10.90;;;;;;;-3.23;100.00;101622.41;5061086;28;20208;-70
2023/03/01 04:46:08;;;;;;;16.35;11.10;;;;;;;-3.22;100.00;101653.75;5060655;28;20209;-69
2023/03/01 04:48:35;;;;;;;14.95;10.82;;;;;;;-3.20;100.00;101650.28;5061112;28;20677;-70
2023/03/01 04:51:02;;;;;;;14.27;10.73;;;;;;;-3.18;100.00;101646.75;5060725;28;20250;-70
2023/03/01 04:53:29;;;;;;;15.95;11.02;;;;;;;-3.16;100.00;101652.84;5060762;28;20197;-69
2023/03/01 04:55:56;;;;;;;14.35;10.40;;;;;;;-3.17;100.00;101653.72;5061082;28;20241;-70
2023/03/01 04:58:23;;;;;;;15.00;11.10;;;;;;;-3.16;100.00;101646.72;5059962;28;20229;-70
2023/03/01 05:00:50;;;;;;;18.33;11.82;;;;;;;-3.20;100.00;101647.66;5052601;28;20190;-70
2023/03/01 05:03:18;;;;;;;16.58;11.20;;;;;;;-3.23;100.00;101656.41;5042579;28;20237;-69
2023/03/01 05:05:46;;;;;;;12.25;10.95;;;;;;;-3.29;100.00;101651.25;5042332;28;20214;-69
2023/03/01 05:08:17;;;;;;;13.55;11.50;;;;;;;-3.28;100.00;101647.72;5042822;28;20201;-69
2023/03/01 05:10:44;;;;;;;15.48;11.02;;;;;;;-3.34;100.00;101651.28;5042908;28;20356;-69
2023/03/01 05:13:11;;;;;;;18.13;11.25;;;;;;;-3.35;100.00;101646.06;5055285;28;20240;-68
2023/03/01 05:15:37;;;;;;;14.38;10.75;;;;;;;-3.43;100.00;101646.19;5062767;28;20373;-69
2023/03/01 05:18:07;;;;;;;11.93;10.60;;;;;;;-3.50;100.00;101648.00;5060889;28;20200;-69
2023/03/01 05:20:36;;;;;;;16.92;11.45;;;;;;;-3.49;100.00;101643.63;5071891;28;20269;-70
2023/03/01 05:23:04;;;;;;;16.17;11.23;;;;;;;-3.51;100.00;101641.00;5080079;28;20232;-69
2023/03/01 05:25:32;;;;;;;15.90;10.15;;;;;;;-3.51;100.00;101641.00;5057917;28;20306;-69
2023/03/01 05:28:03;;;;;;;15.15;10.93;;;;;;;-3.55;100.00;101636.72;5068942;28;20212;-69
2023/03/01 05:30:31;;;;;;;13.75;10.65;;;;;;;-3.54;100.00;101630.63;5078131;28;20270;-69
2023/03/01 05:32:57;;;;;;;15.75;11.13;;;;;;;-3.52;100.00;101633.22;5074641;28;20204;-69
2023/03/01 05:35:24;;;;;;;15.30;11.05;;;;;;;-3.55;100.00;101641.09;5078642;28;20222;-69
2023/03/01 05:37:52;;;;;;;13.90;10.77;;;;;;;-3.60;100.00;101643.75;5075501;28;20200;-67
2023/03/01 05:40:20;;;;;;;14.65;10.95;;;;;;;-3.64;100.00;101644.66;5062446;28;20282;-67
2023/03/01 05:42:49;;;;;;;15.30;11.07;;;;;;;-3.61;100.00;101647.22;5060296;28;20233;-67
2023/03/01 05:45:17;;;;;;;16.17;12.32;;;;;;;-3.63;100.00;101641.16;5057340;28;20244;-69
2023/03/01 05:47:45;;;;;;;15.10;11.40;;;;;;;-3.62;100.00;101635.91;5058806;28;20471;-69
2023/03/01 05:50:14;;;;;;;17.58;12.73;;;;;;;-3.60;100.00;101638.50;5059752;28;20225;-69
2023/03/01 05:52:40;;;;;;;14.50;11.30;;;;;;;-3.57;100.00;101641.09;5074710;28;20661;-69
2023/03/01 05:55:09;;;;;;;15.18;11.35;;;;;;;-2.67;100.00;101649.56;5078507;28;20239;-68
2023/03/01 05:57:36;;;;;;;20.30;12.50;;;;;;;-3.36;100.00;101645.22;5063562;28;20250;-68
2023/03/01 06:00:03;;;;;;;16.98;12.18;;;;;;;-4.17;100.00;101642.53;5062508;28;20292;-66
2023/03/01 06:02:30;;;;;;;16.40;11.90;;;;;;;-4.46;100.00;101639.25;5065748;28;20585;-66
2023/03/01 06:04:56;;;;;;;14.15;11.55;;;;;;;-4.67;100.00;101650.72;5067116;28;20221;-71
2023/03/01 06:07:23;;;;;;;17.55;13.10;;;;;;;-4.76;100.00;101644.66;5065944;28;20303;-67
2023/03/01 06:09:50;;;;;;;15.73;13.15;;;;;;;-4.85;100.00;101638.66;5072450;28;20196;-67
2023/03/01 06:12:18;;;;;;;18.27;13.95;;;;;;;-4.70;100.00;101649.00;5067940;28;20244;-67
2023/03/01 06:14:46;;;;;;;19.92;11.82;;;;;;;-4.74;100.00;101642.94;5069565;28;20223;-66
2023/03/01 06:17:13;;;;;;;17.00;12.13;;;;;;;-4.68;100.00;101652.47;5083520;28;20226;-67
2023/03/01 06:19:39;;;;;;;17.25;12.65;;;;;;;-4.54;100.00;101655.84;5076363;28;20726;-66
2023/03/01 06:22:06;;;;;;;17.38;13.32;;;;;;;-4.52;100.00;101657.59;5070420;28;20556;-67
2023/03/01 06:24:33;;;;;;;18.45;13.27;;;;;;;-4.48;100.00;101651.47;5066886;28;20210;-67
2023/03/01 06:27:00;;;;;;;21.17;15.43;;;;;;;-4.48;100.00;101651.47;5067607;28;20523;-65
2023/03/01 06:29:28;;;;;;;20.23;14.52;;;;;;;-4.41;100.00;101660.97;5065051;28;20264;-66
2023/03/01 06:31:55;;;;;;;13.98;11.90;;;;;;;-4.27;100.00;101647.81;5063650;28;20296;-66
2023/03/01 06:34:21;;;;;;;15.38;12.65;;;;;;;-4.10;100.00;101650.31;5081096;28;20215;-67
2023/03/01 06:36:48;;;;;;;17.10;12.57;;;;;;;-3.94;100.00;101646.69;5084253;28;20194;-67
2023/03/01 06:39:17;;;;;;;15.32;12.73;;;;;;;-3.31;100.00;101659.13;5070189;28;20217;-67
2023/03/01 06:41:44;;;;;;;22.63;14.52;;;;;;;-2.41;100.00;101664.03;5063253;28;20201;-66
2023/03/01 06:44:10;;;;;;;16.63;14.25;;;;;;;-1.54;100.00;101664.31;5062862;28;20206;-67
2023/03/01 06:46:39;;;;;;;21.63;14.60;;;;;;;-0.73;100.00;101652.22;5063516;28;20614;-66
2023/03/01 06:49:09;;;;;;;22.30;14.57;;;;;;;-0.32;100.00;101650.41;5062840;28;20879;-67
2023/03/01 06:51:36;;;;;;;19.77;14.63;;;;;;;0.76;100.00;101651.09;5061871;28;20469;-67
2023/03/01 06:54:02;;;;;;;16.60;13.23;;;;;;;1.30;100.00;101642.50;5061793;28;20474;-60
2023/03/01 06:56:29;;;;;;;15.10;12.70;;;;;;;1.34;100.00;101640.63;5061767;28;20480;-60
2023/03/01 06:58:56;;;;;;;17.80;12.80;;;;;;;0.33;100.00;101639.13;5061058;28;20796;-60
2023/03/01 07:01:22;;;;;;;13.17;11.70;;;;;;;-0.67;100.00;101631.06;5072944;28;20475;-59
2023/03/01 07:03:50;;;;;;;16.43;12.10;;;;;;;-0.77;100.00;101630.41;5065943;28;20481;-60
2023/03/01 07:06:17;;;;;;;18.30;12.53;;;;;;;0.43;100.00;101627.44;5061020;28;20510;-60
2023/03/01 07:08:44;;;;;;;16.20;11.97;;;;;;;1.78;100.00;101635.72;5065878;28;20463;-60
2023/03/01 07:11:10;;;;;;;21.20;13.80;;;;;;;2.80;93.95;101626.94;5068074;28;20511;-60
2023/03/01 07:13:37;;;;;;;14.20;11.63;;;;;;;3.42;87.70;101636.03;5067302;28;20500;-60
2023/03/01 07:16:04;;;;;;;15.10;12.27;;;;;;;4.11;80.73;101622.63;5069391;28;20497;-60
2023/03/01 07:18:31;;;;;;;16.07;12.50;;;;;;;4.71;74.02;101622.63;5069326;28;20474;-60
2023/03/01 07:20:59;;;;;;;14.30;11.63;;;;;;;4.49;71.61;101632.47;5064852;28;20593;-60
2023/03/01 07:23:25;;;;;;;14.70;11.93;;;;;;;3.33;76.18;101621.38;5076975;28;20747;-60
2023/03/01 07:25:53;;;;;;;14.73;12.13;;;;;;;1.87;86.17;101622.25;5061953;28;20504;-60
2023/03/01 07:28:20;;;;;;;14.80;11.70;;;;;;;0.57;98.15;101619.16;5064984;28;21210;-60
2023/03/01 07:30:47;;;;;;;19.03;12.40;;;;;;;0.04;100.00;101616.25;5065415;28;20827;-60
2023/03/01 07:33:13;;;;;;;17.17;12.47;;;;;;;1.74;100.00;101615.66;5078803;28;20451;-60
2023/03/01 07:35:40;;;;;;;16.83;12.27;;;;;;;3.66;89.78;101602.41;5076691;28;20532;-60
2023/03/01 07:38:08;;;;;;;12.57;10.77;;;;;;;4.60;76.62;101605.50;5070403;28;20479;-60
2023/03/01 07:40:35;;;;;;;21.60;12.33;;;;;;;4.58;73.11;101610.00;5061835;28;20471;-62
2023/03/01 07:43:02;;;;;;;13.27;10.87;;;;;;;4.33;75.43;101606.66;5063915;28;20973;-61
2023/03/01 07:45:29;;;;;;;12.73;11.23;;;;;;;3.92;77.63;101597.84;5071966;28;20463;-61
2023/03/01 07:47:56;;;;;;;13.60;11.83;;;;;;;3.66;77.82;101593.63;5062594;28;20463;-61
2023/03/01 07:50:23;;;;;;;13.30;11.97;;;;;;;3.76;80.89;101603.78;5075878;28;20487;-61
2023/03/01 07:52:50;;;;;;;17.00;13.03;;;;;;;4.88;76.82;101595.38;5079974;28;20472;-61
2023/03/01 07:55:19;;;;;;;15.77;12.63;;;;;;;3.59;79.60;101606.25;5079741;28;20494;-60
2023/03/01 07:57:45;;;;;;;17.10;12.20;;;;;;;5.72;68.24;101608.19;5053290;28;20608;-61
2023/03/01 08:00:13;;;;;;;14.33;11.40;;;;;;;6.18;65.09;101610.34;5072630;28;20487;-62
2023/03/01 08:02:41;;;;;;;13.67;11.77;;;;;;;5.39;65.20;101618.66;5080787;28;20463;-62
2023/03/01 08:05:08;;;;;;;13.90;12.00;;;;;;;5.93;64.61;101616.88;5079922;28;20448;-62
2023/03/01 08:07:35;;;;;;;13.50;11.60;;;;;;;7.60;57.72;101613.31;5080661;28;20452;-61
2023/03/01 08:10:02;;;;;;;15.07;12.13;;;;;;;8.91;49.75;101616.22;5069942;28;20731;-62
2023/03/01 08:12:30;;;;;;;15.87;12.83;;;;;;;9.39;46.54;101611.34;5071187;28;20473;-61
2023/03/01 08:14:57;;;;;;;15.60;12.03;;;;;;;9.92;44.22;101612.31;5067826;28;20468;-62
2023/03/01 08:17:24;;;;;;;15.57;11.13;;;;;;;10.62;42.07;101602.25;5071061;28;20480;-62
2023/03/01 08:19:51;;;;;;;16.50;11.73;;;;;;;9.22;43.98;101604.47;5080274;28;20452;-63
2023/03/01 08:22:18;;;;;;;13.07;10.50;;;;;;;6.30;57.43;101599.09;5080020;28;20471;-61
2023/03/01 08:24:44;;;;;;;15.50;11.27;;;;;;;7.56;54.96;101596.69;5079591;28;20510;-62
2023/03/01 08:27:11;;;;;;;14.83;10.73;;;;;;;9.60;46.65;101609.97;5079498;28;20879;-63
2023/03/01 08:29:39;;;;;;;14.40;12.07;;;;;;;10.34;43.70;101599.69;5080059;28;20445;-62
2023/03/01 08:32:06;;;;;;;12.63;10.60;;;;;;;9.96;42.19;101600.47;5072354;28;20488;-63
2023/03/01 08:34:35;;;;;;;11.70;10.50;;;;;;;11.50;39.91;101592.31;5079510;28;20487;-62
2023/03/01 08:37:02;;;;;;;12.63;11.33;;;;;;;11.91;38.32;101590.22;5079381;28;20502;-63
2023/03/01 08:39:29;;;;;;;11.07;9.87;;;;;;;12.16;37.77;101585.66;5080004;28;20466;-63
2023/03/01 08:41:55;;;;;;;12.17;10.97;;;;;;;12.19;36.75;101585.44;5076692;28;20476;-63
2023/03/01 08:44:22;;;;;;;13.23;11.30;;;;;;;12.48;38.26;101588.53;5076878;28;20453;-63
2023/03/01 08:46:52;;;;;;;18.13;11.03;;;;;;;8.47;43.29;101589.56;5073768;28;20496;-63
2023/03/01 08:49:20;;;;;;;12.23;10.20;;;;;;;9.07;46.81;101592.09;5072501;28;20456;-62
2023/03/01 08:51:47;;;;;;;12.77;10.93;;;;;;;9.88;43.49;101593.94;5079502;28;20774;-62
2023/03/01 08:54:16;;;;;;;13.90;10.13;;;;;;;11.53;39.78;101587.69;5079206;28;20451;-64
2023/03/01 08:56:43;;;;;;;11.77;10.60;;;;;;;12.44;37.12;101581.69;5073237;28;20504;-63
2023/03/01 08:59:10;;;;;;;13.77;10.83;;;;;;;10.33;39.83;101591.78;5070173;28;20525;-63
2023/03/01 09:01:38;;;;;;;13.33;11.27;;;;;;;11.57;40.48;101589.19;5070172;28;20461;-63
2023/03/01 09:04:06;;;;;;;11.67;10.47;;;;;;;12.70;37.15;101590.34;5075415;28;20445;-63
2023/03/01 09:06:33;;;;;;;11.87;10.63;;;;;;;11.67;37.95;101585.69;5078437;28;20719;-63
2023/03/01 09:09:01;;;;;;;10.87;9.77;;;;;;;10.18;39.24;101590.97;5079876;28;20428;-63
2023/03/01 09:11:29;;;;;;;13.00;9.80;;;;;;;11.34;39.14;101588.22;5078210;28;20511;-62
2023/03/01 09:13:56;;;;;;;11.47;10.37;;;;;;;8.23;46.20;101583.88;5073339;28;20436;-63
2023/03/01 09:16:23;;;;;;;14.60;12.03;;;;;;;6.18;56.03;101589.09;5077052;28;20908;-63
2023/03/01 09:18:51;;;;;;;14.70;11.23;;;;;;;6.16;63.37;101583.88;5078709;28;20477;-61
2023/03/01 09:21:20;;;;;;;13.20;10.83;;;;;;;6.64;58.92;101581.38;5071777;28;20468;-63
2023/03/01 09:23:48;;;;;;;13.43;11.70;;;;;;;7.12;53.64;101576.97;5058321;28;20456;-63
2023/03/01 09:26:18;;;;;;;14.90;10.60;;;;;;;5.76;63.18;101579.69;5066466;28;20469;-63
2023/03/01 09:28:46;;;;;;;17.73;12.23;;;;;;;5.71;68.46;101585.25;5076240;28;20455;-62
2023/03/01 09:31:13;;;;;;;16.17;10.80;;;;;;;6.71;63.07;101564.16;5064845;28;20875;-61
2023/03/01 09:33:41;;;;;;;13.47;10.83;;;;;;;6.72;62.51;101563.22;5073943;28;20899;-63
2023/03/01 09:36:11;;;;;;;14.90;10.50;;;;;;;6.39;60.66;101566.75;5068415;28;20480;-63
2023/03/01 09:38:39;;;;;;;14.10;10.50;;;;;;;7.97;54.55;101561.47;5079370;28;20440;-63
2023/03/01 09:41:11;;;;;;;13.03;10.90;;;;;;;7.56;52.98;101561.22;5079002;28;20480;-63
2023/03/01 09:43:43;;;;;;;15.63;11.13;;;;;;;7.60;56.23;101560.09;5079008;28;20464;-63
2023/03/01 09:46:13;;;;;;;13.63;11.10;;;;;;;7.77;52.48;101556.47;5077751;28;20476;-61
2023/03/01 09:48:43;;;;;;;18.17;10.50;;;;;;;6.48;58.61;101557.41;5079119;28;20421;-63
2023/03/01 09:51:15;;;;;;;46.73;23.27;;;;;;;6.58;61.46;101544.50;5078154;28;20503;-63
2023/03/01 09:53:43;;;;;;;34.60;18.00;;;;;;;7.72;53.65;101538.06;5078805;28;20483;-63
2023/03/01 09:56:18;;;;;;;15.83;10.70;;;;;;;6.88;50.71;101543.78;5067160;28;20535;-62
2023/03/01 09:58:52;;;;;;;23.53;11.97;;;;;;;6.84;49.37;101537.78;5077591;28;20477;-63
2023/03/01 10:01:31;;;;;;;37.83;18.30;;;;;;;6.03;52.94;101535.84;5075615;28;20468;-62
2023/03/01 10:04:33;;;;;;;11.30;8.80;;;;;;;8.51;46.80;101536.06;5072862;28;20675;-63
2023/03/01 10:07:13;;;;;;;17.73;9.60;;;;;;;7.22;48.02;101539.22;5059426;28;20480;-63
2023/03/01 10:09:43;;;;;;;13.53;9.20;;;;;;;7.08;53.14;101545.31;5077959;28;20436;-62
2023/03/01 10:12:12;;;;;;;11.73;9.07;;;;;;;8.86;47.09;101548.00;5073079;28;20476;-63
2023/03/01 10:14:41;;;;;;;14.30;8.37;;;;;;;8.81;45.72;101546.59;5062657;28;20464;-63
2023/03/01 10:17:13;;;;;;;14.33;9.63;;;;;;;7.49;46.28;101534.13;5079058;28;20487;-63
2023/03/01 10:19:42;;;;;;;13.50;8.80;;;;;;;9.17;46.48;101535.38;5078922;28;20812;-63
2023/03/01 10:22:15;;;;;;;12.13;8.50;;;;;;;6.54;50.02;101533.16;5075091;28;20476;-62
2023/03/01 10:24:44;;;;;;;13.00;7.90;;;;;;;6.01;50.65;101535.09;5078818;28;21030;-63
2023/03/01 10:27:16;;;;;;;12.73;7.90;;;;;;;6.58;49.96;101542.72;5078667;28;20486;-62
2023/03/01 10:29:47;;;;;;;10.20;7.83;;;;;;;7.25;48.51;101537.22;5078655;28;20471;-61
2023/03/01 10:32:13;;;;;;;11.00;8.27;;;;;;;6.92;47.48;101535.53;5079213;28;20511;-61
2023/03/01 10:34:41;;;;;;;11.50;8.10;;;;;;;6.89;47.63;101540.16;5078824;28;20870;-62
2023/03/01 10:37:13;;;;;;;11.33;7.93;;;;;;;6.51;48.02;101532.47;5076279;28;20594;-61
2023/03/01 10:42:35;;;;;;;10.43;7.30;;;;;;;9.09;43.04;101523.47;5121549;27;20568;-62
2023/03/01 10:45:17;;;;;;;10.43;7.20;;;;;;;7.99;44.37;101521.44;5136874;27;20471;-62
2023/03/01 10:47:44;;;;;;;14.00;8.50;;;;;;;7.34;45.83;101531.41;5139722;27;20798;-62
2023/03/01 10:50:20;;;;;;;12.10;8.00;;;;;;;7.30;47.77;101523.69;5137225;27;20510;-62
2023/03/01 10:52:58;;;;;;;11.13;7.53;;;;;;;6.30;49.01;101522.09;5138674;27;20461;-62
2023/03/01 10:55:28;;;;;;;10.40;7.27;;;;;;;6.63;48.32;101528.31;5158190;27;20977;-62
2023/03/01 10:58:12;;;;;;;11.70;6.60;;;;;;;7.19;46.88;101524.28;5146619;27;20543;-62
2023/03/01 11:00:50;;;;;;;9.40;7.10;;;;;;;7.48;44.63;101525.28;5143728;27;20563;-62
2023/03/01 11:03:20;;;;;;;7.90;6.50;;;;;;;7.46;44.74;101519.16;5134844;27;20552;-62
2023/03/01 11:06:13;;;;;;;9.47;6.70;;;;;;;7.60;46.44;101509.53;5139862;27;20772;-62
2023/03/01 11:08:42;;;;;;;12.17;7.50;;;;;;;7.31;46.81;101512.94;5146669;27;20596;-62
2023/03/01 11:11:19;;;;;;;9.20;7.10;;;;;;;5.55;50.52;101505.53;5140099;27;20475;-62
2023/03/01 11:13:59;;;;;;;10.70;6.90;;;;;;;5.38;52.57;101511.72;5136308;27;20836;-61
2023/03/01 11:16:32;;;;;;;9.87;7.37;;;;;;;5.55;51.34;101510.84;5153897;27;20951;-62
2023/03/01 11:19:02;;;;;;;8.63;6.70;;;;;;;5.73;50.19;101501.13;5145062;27;20509;-61